Time;durP1;ratioP1;P1;durP2;ratioP2;P2;SDS_P1;SDS_P2;PMS_P1;PMS_P2;Temp;Humidity;BMP_temperature;BMP_pressure;BME280_temperature;BME280_humidity;BME280_pressure;Samples;Min_cycle;Max_cycle;Signal;HPM_P1;HPM_P2
2024/02/12 00:00:11;;;;;;;0.47;0.47;;;;;;;6.28;100.00;97457.19;5038580;28;20048;-58
2024/02/12 00:02:52;;;;;;;0.40;0.40;;;;;;;6.29;100.00;97455.31;5041145;28;20060;-58
2024/02/12 00:05:21;;;;;;;0.40;0.40;;;;;;;6.38;100.00;97453.78;5039712;28;20156;-58
2024/02/12 00:07:48;;;;;;;0.30;0.30;;;;;;;6.36;100.00;97466.53;5042274;28;20048;-59
2024/02/12 00:10:15;;;;;;;0.50;0.50;;;;;;;6.33;100.00;97462.53;5040443;28;20095;-58
2024/02/12 00:12:42;;;;;;;0.30;0.30;;;;;;;6.35;100.00;97460.41;5040625;28;20051;-59
2024/02/12 00:15:12;;;;;;;0.30;0.30;;;;;;;6.37;100.00;97468.16;5038248;28;20139;-58
2024/02/12 00:17:39;;;;;;;0.30;0.30;;;;;;;6.39;100.00;97461.50;5039985;28;20047;-58
2024/02/12 00:20:10;;;;;;;0.32;0.32;;;;;;;6.41;100.00;97466.56;5021435;28;20605;-59
2024/02/12 00:22:40;;;;;;;0.40;0.40;;;;;;;6.47;100.00;97469.00;5042525;28;20044;-58
2024/02/12 00:25:08;;;;;;;0.28;0.28;;;;;;;6.42;100.00;97473.50;5040597;28;20049;-58
2024/02/12 00:27:36;;;;;;;0.40;0.40;;;;;;;6.40;100.00;97473.75;5041571;28;20098;-58
2024/02/12 00:30:04;;;;;;;0.30;0.30;;;;;;;6.39;100.00;97466.84;5038523;28;20048;-58
2024/02/12 00:32:33;;;;;;;0.50;0.50;;;;;;;6.46;100.00;97471.91;5043728;28;20094;-58
2024/02/12 00:35:00;;;;;;;0.40;0.40;;;;;;;6.39;100.00;97469.50;5014831;28;20053;-58
2024/02/12 00:37:29;;;;;;;0.30;0.30;;;;;;;6.36;100.00;97475.31;5040748;28;20037;-58
2024/02/12 00:39:58;;;;;;;0.40;0.40;;;;;;;6.36;100.00;97477.97;5041083;28;20041;-58
2024/02/12 00:42:25;;;;;;;0.50;0.50;;;;;;;6.39;100.00;97476.66;5032849;28;20037;-59
2024/02/12 00:44:52;;;;;;;0.30;0.30;;;;;;;6.41;100.00;97479.88;5036826;28;20055;-58
2024/02/12 00:47:19;;;;;;;0.40;0.40;;;;;;;6.43;100.00;97480.41;5038664;28;20084;-58
2024/02/12 00:49:46;;;;;;;0.50;0.50;;;;;;;6.50;100.00;97488.97;5030821;28;20072;-58
2024/02/12 00:52:12;;;;;;;0.40;0.40;;;;;;;6.47;100.00;97486.84;5038989;28;20056;-58
2024/02/12 00:54:41;;;;;;;0.30;0.30;;;;;;;6.53;100.00;97490.31;5041833;28;20048;-58
2024/02/12 00:57:10;;;;;;;0.40;0.40;;;;;;;6.48;100.00;97485.75;5038254;28;20049;-58
2024/02/12 00:59:40;;;;;;;0.40;0.40;;;;;;;6.40;100.00;97504.88;5038511;28;20098;-58
2024/02/12 01:02:08;;;;;;;;;;;;;;;6.40;100.00;97504.88;5039077;28;20053;-58
2024/02/12 01:04:36;;;;;;;0.40;0.40;;;;;;;6.30;100.00;97504.84;5041067;28;19924;-59
2024/02/12 01:07:03;;;;;;;0.38;0.38;;;;;;;6.32;100.00;97513.38;5040391;28;20052;-58
2024/02/12 01:09:30;;;;;;;0.35;0.35;;;;;;;6.36;100.00;97517.09;5039975;28;20049;-58
2024/02/12 01:11:58;;;;;;;0.40;0.40;;;;;;;6.34;100.00;97514.72;5019509;28;20093;-58
2024/02/12 01:14:28;;;;;;;0.32;0.32;;;;;;;6.34;100.00;97516.53;5041174;28;20499;-58
2024/02/12 01:16:55;;;;;;;0.40;0.40;;;;;;;6.35;100.00;97518.16;5040283;28;20135;-58
2024/02/12 01:19:23;;;;;;;0.40;0.40;;;;;;;6.38;100.00;97522.97;5024520;28;20150;-59
2024/02/12 01:21:50;;;;;;;0.40;0.40;;;;;;;6.42;100.00;97524.88;5017427;28;20048;-58
2024/02/12 01:24:17;;;;;;;0.45;0.45;;;;;;;6.49;100.00;97535.28;5040580;28;20061;-58
2024/02/12 01:26:44;;;;;;;0.20;0.20;;;;;;;6.57;100.00;97531.34;5036324;28;20067;-58
2024/02/12 01:29:11;;;;;;;0.35;0.35;;;;;;;6.62;100.00;97534.81;5039899;28;20059;-58
2024/02/12 01:31:39;;;;;;;0.40;0.40;;;;;;;6.68;100.00;97532.97;5041322;28;20065;-58
2024/02/12 01:34:06;;;;;;;0.35;0.35;;;;;;;6.69;100.00;97543.38;5044247;28;20045;-58
2024/02/12 01:36:35;;;;;;;0.35;0.35;;;;;;;6.75;100.00;97546.88;5041968;28;20143;-58
2024/02/12 01:39:02;;;;;;;0.35;0.35;;;;;;;6.83;100.00;97551.69;5039076;28;20041;-58
2024/02/12 01:41:29;;;;;;;0.40;0.40;;;;;;;6.86;100.00;97551.19;5043852;28;20491;-58
2024/02/12 01:43:56;;;;;;;0.30;0.30;;;;;;;6.91;100.00;97545.91;5045025;28;20132;-59
2024/02/12 01:46:23;;;;;;;0.30;0.30;;;;;;;6.89;100.00;97556.00;5026332;28;20496;-60
2024/02/12 01:48:52;;;;;;;0.40;0.40;;;;;;;6.94;100.00;97563.22;5045024;28;20052;-58
2024/02/12 01:51:20;;;;;;;0.30;0.30;;;;;;;7.00;100.00;97559.50;5041191;28;20033;-58
2024/02/12 01:53:47;;;;;;;0.30;0.30;;;;;;;7.00;100.00;97572.81;5042847;28;20122;-59
2024/02/12 01:56:14;;;;;;;0.30;0.30;;;;;;;6.98;100.00;97569.63;5041569;28;20037;-58
2024/02/12 01:58:42;;;;;;;0.40;0.40;;;;;;;7.02;100.00;97568.03;5025990;28;20767;-58
2024/02/12 02:01:14;;;;;;;0.20;0.20;;;;;;;6.98;100.00;97572.28;5046340;28;20098;-58
2024/02/12 02:03:42;;;;;;;0.38;0.38;;;;;;;6.95;100.00;97578.13;5016586;28;20057;-59
2024/02/12 02:06:12;;;;;;;0.40;0.40;;;;;;;6.91;100.00;97574.38;5043692;28;20295;-58
2024/02/12 02:08:39;;;;;;;0.30;0.30;;;;;;;7.00;100.00;97577.34;5042299;28;20060;-58
2024/02/12 02:11:06;;;;;;;0.40;0.40;;;;;;;6.97;100.00;97573.34;5038813;28;20051;-59
2024/02/12 02:13:34;;;;;;;0.30;0.30;;;;;;;7.00;100.00;97575.50;5043045;28;20052;-58
2024/02/12 02:16:23;;;;;;;0.30;0.30;;;;;;;6.91;100.00;97574.38;5042728;28;20076;-58
2024/02/12 02:18:52;;;;;;;0.30;0.30;;;;;;;7.02;100.00;97570.72;5042126;28;20040;-59
2024/02/12 02:21:27;;;;;;;0.30;0.30;;;;;;;7.03;100.00;97572.31;5041939;28;20132;-59
2024/02/12 02:23:58;;;;;;;0.32;0.32;;;;;;;6.93;100.00;97582.13;5042984;28;20529;-58
2024/02/12 02:26:27;;;;;;;0.30;0.30;;;;;;;6.89;100.00;97587.97;5042652;28;20037;-59
2024/02/12 02:28:56;;;;;;;0.30;0.30;;;;;;;6.89;100.00;97585.31;5041203;28;20122;-59
2024/02/12 02:31:23;;;;;;;0.30;0.30;;;;;;;6.90;100.00;97594.09;5041728;28;20139;-60
2024/02/12 02:33:50;;;;;;;0.38;0.38;;;;;;;6.88;100.00;97591.66;5043557;28;20615;-59
2024/02/12 02:36:17;;;;;;;0.30;0.30;;;;;;;6.81;100.00;97606.28;5042337;28;20147;-59
2024/02/12 02:38:44;;;;;;;0.40;0.40;;;;;;;6.77;100.00;97599.88;5043570;28;20041;-59
2024/02/12 02:41:12;;;;;;;0.38;0.38;;;;;;;6.74;100.00;97605.69;5039566;28;20120;-59
2024/02/12 02:43:39;;;;;;;0.30;0.30;;;;;;;6.74;100.00;97606.53;5039957;28;20063;-59
2024/02/12 02:46:07;;;;;;;0.30;0.30;;;;;;;6.71;100.00;97604.34;5024953;28;20090;-60
2024/02/12 02:48:35;;;;;;;0.20;0.20;;;;;;;6.73;100.00;97612.09;5044233;28;20057;-59
2024/02/12 02:51:02;;;;;;;0.45;0.45;;;;;;;6.68;100.00;97613.66;5040310;28;20118;-59
2024/02/12 02:53:29;;;;;;;0.38;0.38;;;;;;;6.69;100.00;97615.28;5044122;28;20052;-59
2024/02/12 02:55:56;;;;;;;0.35;0.35;;;;;;;6.70;100.00;97610.75;5043999;28;20049;-59
2024/02/12 02:58:24;;;;;;;0.40;0.40;;;;;;;6.69;100.00;97611.81;5038573;28;20166;-59
2024/02/12 03:00:53;;;;;;;0.40;0.40;;;;;;;6.70;100.00;97611.53;5039456;28;20064;-59
2024/02/12 03:03:20;;;;;;;0.28;0.28;;;;;;;6.64;100.00;97617.91;5041662;28;20605;-59
2024/02/12 03:05:49;;;;;;;0.40;0.40;;;;;;;6.62;100.00;97616.56;5041299;28;20033;-59
2024/02/12 03:08:16;;;;;;;0.30;0.30;;;;;;;6.77;100.00;97610.53;5042097;28;20052;-59
2024/02/12 03:10:43;;;;;;;0.38;0.38;;;;;;;6.72;100.00;97618.50;5042038;28;20446;-59
2024/02/12 03:13:10;;;;;;;0.30;0.30;;;;;;;6.74;100.00;97629.66;5036731;28;20069;-59
2024/02/12 03:15:42;;;;;;;0.30;0.30;;;;;;;6.78;100.00;97628.91;5043202;28;20045;-59
2024/02/12 03:18:09;;;;;;;0.40;0.40;;;;;;;6.78;100.00;97634.22;5039924;28;20060;-59
2024/02/12 03:20:37;;;;;;;0.30;0.30;;;;;;;6.75;100.00;97633.94;5023726;28;20045;-59
2024/02/12 03:23:04;;;;;;;0.40;0.40;;;;;;;6.79;100.00;97641.16;5041475;28;20150;-59
2024/02/12 03:25:31;;;;;;;0.40;0.40;;;;;;;6.79;100.00;97648.34;5040802;28;20040;-59
2024/02/12 03:27:58;;;;;;;0.32;0.32;;;;;;;6.69;100.00;97652.56;5041584;28;20060;-59
2024/02/12 03:30:26;;;;;;;0.22;0.22;;;;;;;6.61;100.00;97658.31;5038899;28;20106;-59
2024/02/12 03:32:55;;;;;;;0.30;0.30;;;;;;;6.64;100.00;97649.84;5038307;28;20041;-59
2024/02/12 03:35:22;;;;;;;0.40;0.40;;;;;;;6.61;100.00;97653.00;5037873;28;20530;-59
2024/02/12 03:37:59;;;;;;;0.30;0.30;;;;;;;6.67;100.00;97653.88;5041450;28;20146;-59
2024/02/12 03:40:28;;;;;;;0.28;0.28;;;;;;;6.58;100.00;97661.50;5023084;28;20823;-59
2024/02/12 03:42:55;;;;;;;0.28;0.28;;;;;;;6.68;100.00;97664.25;5040111;28;20037;-59
2024/02/12 03:45:22;;;;;;;0.40;0.40;;;;;;;6.73;100.00;97657.34;5025370;28;20095;-59
2024/02/12 03:47:49;;;;;;;0.30;0.30;;;;;;;6.64;100.00;97660.50;5039656;28;20495;-59
2024/02/12 04:01:19;;;;;;;0.30;0.30;;;;;;;6.22;100.00;97669.19;5040908;28;20124;-59
2024/02/12 04:03:49;;;;;;;0.40;0.40;;;;;;;6.34;100.00;97670.88;5037965;28;20592;-59
2024/02/12 04:06:17;;;;;;;0.40;0.40;;;;;;;6.23;100.00;97681.44;5038036;28;20133;-59
2024/02/12 04:08:47;;;;;;;0.50;0.50;;;;;;;6.21;100.00;97691.50;5041231;28;20056;-59
2024/02/12 04:11:14;;;;;;;0.40;0.40;;;;;;;6.32;100.00;97691.63;5039597;28;20450;-60
2024/02/12 04:13:41;;;;;;;0.30;0.30;;;;;;;6.26;100.00;97702.25;5042718;28;20281;-60
2024/02/12 04:16:14;;;;;;;0.40;0.40;;;;;;;6.34;100.00;97710.78;5042323;28;20045;-60
2024/02/12 04:18:42;;;;;;;0.40;0.40;;;;;;;6.25;100.00;97711.25;5042444;28;20045;-59
2024/02/12 04:21:09;;;;;;;0.30;0.30;;;;;;;6.19;100.00;97719.44;5038409;28;20044;-59
2024/02/12 04:23:39;;;;;;;0.38;0.38;;;;;;;6.04;100.00;97718.25;5040967;28;20132;-59
2024/02/12 04:26:10;;;;;;;0.30;0.30;;;;;;;6.00;100.00;97724.31;5041148;28;20579;-59
2024/02/12 04:28:39;;;;;;;0.38;0.38;;;;;;;6.02;100.00;97728.31;5040505;28;20072;-59
2024/02/12 04:31:06;;;;;;;0.30;0.30;;;;;;;5.95;100.00;97726.91;5041630;28;20555;-60
2024/02/12 04:33:33;;;;;;;0.20;0.20;;;;;;;5.97;100.00;97732.78;5037577;28;20091;-59
2024/02/12 04:36:01;;;;;;;0.30;0.30;;;;;;;5.97;100.00;97725.59;5041976;28;20287;-59
2024/02/12 04:38:29;;;;;;;0.30;0.30;;;;;;;5.98;100.00;97729.06;5036822;28;20738;-59
2024/02/12 04:41:00;;;;;;;0.40;0.40;;;;;;;6.04;100.00;97736.03;5037334;28;20321;-59
2024/02/12 04:43:27;;;;;;;0.35;0.35;;;;;;;6.11;100.00;97733.97;5043494;28;20124;-59
2024/02/12 04:45:55;;;;;;;0.30;0.30;;;;;;;6.11;100.00;97736.63;5039265;28;20118;-59
2024/02/12 04:48:22;;;;;;;0.40;0.40;;;;;;;6.11;100.00;97736.63;5039566;28;20481;-59
2024/02/12 04:50:49;;;;;;;0.40;0.40;;;;;;;6.19;100.00;97732.72;5040570;28;20759;-59
2024/02/12 04:53:16;;;;;;;0.30;0.30;;;;;;;6.20;100.00;97740.47;5039541;28;20052;-60
2024/02/12 04:55:43;;;;;;;0.40;0.40;;;;;;;6.28;100.00;97741.09;5022786;28;20041;-59
2024/02/12 04:58:11;;;;;;;0.40;0.40;;;;;;;6.41;100.00;97743.34;5035858;28;20041;-59
2024/02/12 05:00:39;;;;;;;0.35;0.35;;;;;;;6.34;100.00;97742.72;5040308;28;20123;-60
2024/02/12 05:03:07;;;;;;;0.30;0.30;;;;;;;6.37;100.00;97744.91;5041447;28;20369;-59
2024/02/12 05:05:35;;;;;;;0.30;0.30;;;;;;;6.44;100.00;97745.47;5038515;28;20037;-59
2024/02/12 05:08:03;;;;;;;0.45;0.45;;;;;;;6.42;100.00;97750.28;5040567;28;20265;-59
2024/02/12 05:10:30;;;;;;;0.30;0.30;;;;;;;6.44;100.00;97750.81;5045965;28;20060;-59
2024/02/12 05:13:03;;;;;;;0.30;0.30;;;;;;;6.46;100.00;97754.03;5048499;28;20511;-59
2024/02/12 05:15:31;;;;;;;0.40;0.40;;;;;;;6.47;100.00;97755.66;5025602;28;21321;-59
2024/02/12 05:18:06;;;;;;;0.22;0.22;;;;;;;6.52;100.00;97755.69;5041927;28;20057;-60
2024/02/12 05:23:19;;;;;;;0.30;0.30;;;;;;;6.51;100.00;97759.41;5036430;28;20579;-59
2024/02/12 05:25:46;;;;;;;0.30;0.30;;;;;;;6.48;100.00;97765.22;5045158;28;20178;-59
2024/02/12 05:28:13;;;;;;;0.30;0.30;;;;;;;6.44;100.00;97767.59;5044000;28;20709;-59
2024/02/12 05:30:42;;;;;;;0.40;0.40;;;;;;;6.40;100.00;97766.50;5040736;28;20044;-59
2024/02/12 05:33:11;;;;;;;0.30;0.30;;;;;;;6.44;100.00;97770.25;5045171;28;20095;-59
2024/02/12 05:35:40;;;;;;;0.30;0.30;;;;;;;6.38;100.00;97768.59;5042737;28;20045;-59
2024/02/12 05:38:08;;;;;;;0.30;0.30;;;;;;;6.38;100.00;97768.59;5043112;28;20511;-59
2024/02/12 05:40:36;;;;;;;0.40;0.40;;;;;;;6.25;100.00;97775.09;5041281;28;20045;-59
2024/02/12 05:43:03;;;;;;;0.40;0.40;;;;;;;6.19;100.00;97775.28;5024200;28;20136;-59
2024/02/12 05:45:31;;;;;;;0.40;0.40;;;;;;;6.07;100.00;97778.09;5038213;28;20326;-60
2024/02/12 05:48:01;;;;;;;0.38;0.38;;;;;;;6.04;100.00;97786.56;5043185;28;20107;-60
2024/02/12 05:50:29;;;;;;;0.32;0.32;;;;;;;6.09;100.00;97791.16;5043201;28;20073;-59
2024/02/12 05:52:57;;;;;;;0.35;0.35;;;;;;;6.15;100.00;97790.16;5024238;28;20049;-59
2024/02/12 05:55:24;;;;;;;0.30;0.30;;;;;;;6.13;100.00;97795.72;5041834;28;20041;-59
2024/02/12 05:57:51;;;;;;;0.40;0.40;;;;;;;6.19;100.00;97791.25;5041063;28;20053;-59
2024/02/12 06:00:18;;;;;;;0.30;0.30;;;;;;;6.23;100.00;97793.19;5042499;28;20037;-59
2024/02/12 06:02:54;;;;;;;0.30;0.30;;;;;;;6.21;100.00;97800.59;5043936;28;20495;-59
2024/02/12 06:05:22;;;;;;;0.40;0.40;;;;;;;6.21;100.00;97794.47;5041285;28;20036;-59
2024/02/12 06:07:50;;;;;;;0.30;0.30;;;;;;;6.19;100.00;97812.53;5043554;28;20052;-59
2024/02/12 06:10:17;;;;;;;0.40;0.40;;;;;;;6.08;100.00;97808.97;5039527;28;20052;-59
2024/02/12 06:12:44;;;;;;;0.50;0.50;;;;;;;6.18;100.00;97817.06;5044526;28;20041;-59
2024/02/12 06:15:12;;;;;;;0.45;0.45;;;;;;;6.01;100.00;97818.97;5040820;28;20122;-59
2024/02/12 06:17:48;;;;;;;0.40;0.40;;;;;;;6.09;100.00;97823.91;5041946;28;20044;-58
2024/02/12 06:20:16;;;;;;;0.40;0.40;;;;;;;6.14;100.00;97823.94;5036183;28;20053;-58
2024/02/12 06:22:44;;;;;;;0.30;0.30;;;;;;;6.13;100.00;97814.34;5021773;28;20083;-58
2024/02/12 06:25:13;;;;;;;0.40;0.40;;;;;;;6.24;100.00;97825.91;5044727;28;20128;-58
2024/02/12 06:27:40;;;;;;;0.35;0.35;;;;;;;6.29;100.00;97826.00;5039991;28;20106;-58
2024/02/12 06:30:10;;;;;;;0.40;0.40;;;;;;;6.29;100.00;97827.81;5043683;28;20076;-58
2024/02/12 06:32:37;;;;;;;0.30;0.30;;;;;;;6.36;100.00;97833.75;5041647;28;20130;-58
2024/02/12 06:35:05;;;;;;;0.40;0.40;;;;;;;6.27;100.00;97838.72;5039151;28;20049;-59
2024/02/12 06:37:33;;;;;;;0.32;0.32;;;;;;;6.31;100.00;97839.03;5041518;28;20045;-59
2024/02/12 06:40:02;;;;;;;0.40;0.40;;;;;;;6.17;100.00;97834.09;5025356;28;20072;-59
2024/02/12 06:42:31;;;;;;;0.40;0.40;;;;;;;6.17;100.00;97842.06;5034011;28;20055;-59
2024/02/12 06:44:59;;;;;;;0.40;0.40;;;;;;;6.21;100.00;97847.69;5040753;28;20095;-60
2024/02/12 06:47:27;;;;;;;0.30;0.30;;;;;;;6.25;100.00;97854.94;5040529;28;20132;-59
2024/02/12 06:49:55;;;;;;;0.30;0.30;;;;;;;6.21;100.00;97861.00;5022785;28;20045;-59
2024/02/12 06:52:22;;;;;;;0.40;0.40;;;;;;;6.23;100.00;97861.56;5041952;28;20048;-59
2024/02/12 06:54:49;;;;;;;0.40;0.40;;;;;;;6.30;100.00;97856.06;5038952;28;20051;-59
2024/02/12 06:57:18;;;;;;;0.55;0.55;;;;;;;6.23;100.00;97862.34;5041643;28;20052;-59
2024/02/12 06:59:45;;;;;;;0.40;0.40;;;;;;;6.17;100.00;97867.88;5040154;28;20041;-59
2024/02/12 07:02:13;;;;;;;0.40;0.40;;;;;;;6.14;100.00;97874.50;5043670;28;20043;-59
2024/02/12 07:04:42;;;;;;;0.50;0.50;;;;;;;6.17;100.00;97876.66;5036956;28;20072;-60
2024/02/12 07:07:10;;;;;;;0.40;0.40;;;;;;;6.19;100.00;97877.22;5040914;28;20470;-57
2024/02/12 07:09:37;;;;;;;0.38;0.38;;;;;;;6.19;100.00;97885.19;5041080;28;20071;-58
2024/02/12 07:12:06;;;;;;;0.40;0.40;;;;;;;6.19;100.00;97885.19;5036136;28;20041;-58
2024/02/12 07:14:35;;;;;;;0.40;0.40;;;;;;;6.19;100.00;97887.88;5045257;28;20442;-58
2024/02/12 07:17:02;;;;;;;0.50;0.50;;;;;;;6.24;100.00;97893.25;5042188;28;20438;-58
2024/02/12 07:19:29;;;;;;;0.40;0.40;;;;;;;6.28;100.00;97890.88;5040999;28;20119;-58
2024/02/12 07:21:56;;;;;;;0.40;0.40;;;;;;;6.45;100.00;97901.47;5041056;28;20450;-58
2024/02/12 07:24:23;;;;;;;0.40;0.40;;;;;;;6.35;100.00;97901.34;5040472;28;20044;-58
2024/02/12 07:26:50;;;;;;;0.38;0.38;;;;;;;6.47;100.00;97904.69;5040876;28;20103;-58
2024/02/12 07:29:18;;;;;;;0.30;0.30;;;;;;;6.24;100.00;97905.72;5040639;28;20061;-58
2024/02/12 07:31:46;;;;;;;0.35;0.35;;;;;;;6.20;100.00;97916.06;5041903;28;20131;-59
2024/02/12 07:34:13;;;;;;;0.40;0.40;;;;;;;6.29;100.00;97920.94;5041853;28;20135;-59
2024/02/12 07:36:44;;;;;;;0.38;0.38;;;;;;;6.15;100.00;97923.97;5040846;28;20454;-59
2024/02/12 07:39:11;;;;;;;0.40;0.40;;;;;;;6.20;100.00;97925.91;5037486;28;20036;-61
2024/02/12 07:41:39;;;;;;;0.40;0.40;;;;;;;6.28;100.00;97925.47;5040254;28;20056;-58
2024/02/12 07:44:08;;;;;;;0.32;0.32;;;;;;;6.37;100.00;97933.84;5037223;28;20037;-58
2024/02/12 07:46:35;;;;;;;0.32;0.32;;;;;;;6.41;100.00;97932.28;5041538;28;20072;-57
2024/02/12 07:49:05;;;;;;;0.50;0.50;;;;;;;6.39;100.00;97940.53;5048114;28;20060;-58
2024/02/12 07:51:32;;;;;;;0.40;0.40;;;;;;;6.40;100.00;97947.47;5026350;28;20049;-58
2024/02/12 07:53:59;;;;;;;0.40;0.40;;;;;;;6.33;100.00;97943.38;5041583;28;20055;-59
2024/02/12 07:56:27;;;;;;;0.40;0.40;;;;;;;6.23;100.00;97952.03;5041267;28;20076;-58
2024/02/12 07:58:54;;;;;;;0.38;0.38;;;;;;;6.20;100.00;97953.31;5038908;28;20421;-58
2024/02/12 08:01:21;;;;;;;0.40;0.40;;;;;;;6.19;100.00;97957.03;5038638;28;20041;-58
2024/02/12 08:03:50;;;;;;;0.35;0.35;;;;;;;6.17;100.00;97956.47;5041489;28;20033;-58
2024/02/12 08:06:19;;;;;;;0.30;0.30;;;;;;;6.17;100.00;97959.13;5040305;28;20053;-58
2024/02/12 08:08:47;;;;;;;0.40;0.40;;;;;;;6.20;100.00;97963.97;5041346;28;20486;-58
2024/02/12 08:11:14;;;;;;;0.40;0.40;;;;;;;6.14;100.00;97964.94;5016576;28;20130;-58
2024/02/12 08:13:43;;;;;;;0.30;0.30;;;;;;;6.21;100.00;97975.41;5013017;28;20049;-58
2024/02/12 08:16:10;;;;;;;0.40;0.40;;;;;;;6.22;100.00;97977.81;5040823;28;20076;-58
2024/02/12 08:18:46;;;;;;;0.38;0.38;;;;;;;6.17;100.00;97979.63;5042772;28;20317;-58
2024/02/12 08:21:13;;;;;;;0.32;0.32;;;;;;;6.28;100.00;97985.88;5039306;28;20077;-58
2024/02/12 08:23:42;;;;;;;0.40;0.40;;;;;;;6.26;100.00;97986.13;5039313;28;20044;-58
2024/02/12 08:26:10;;;;;;;0.40;0.40;;;;;;;6.28;100.00;97980.56;5036383;28;20087;-59
2024/02/12 08:28:37;;;;;;;0.40;0.40;;;;;;;6.27;100.00;97985.09;5039573;28;20160;-59
2024/02/12 08:31:04;;;;;;;0.40;0.40;;;;;;;6.18;100.00;97992.66;5041061;28;20507;-59
2024/02/12 08:33:31;;;;;;;0.32;0.32;;;;;;;6.25;100.00;97993.28;5040258;28;20045;-59
2024/02/12 08:35:58;;;;;;;0.50;0.50;;;;;;;6.26;100.00;97994.09;5040372;28;20115;-59
2024/02/12 08:38:25;;;;;;;0.40;0.40;;;;;;;6.28;100.00;97996.53;5022526;28;20710;-59
2024/02/12 08:40:55;;;;;;;0.40;0.40;;;;;;;6.28;100.00;98001.84;5036969;28;20120;-58
2024/02/12 08:43:22;;;;;;;0.50;0.50;;;;;;;6.33;100.00;98012.56;5022670;28;20037;-59
2024/02/12 08:45:49;;;;;;;0.43;0.43;;;;;;;6.35;100.00;98007.81;5038780;28;20535;-58
2024/02/12 08:48:25;;;;;;;0.40;0.40;;;;;;;6.39;100.00;98020.38;5012285;28;20045;-61
2024/02/12 08:50:53;;;;;;;0.40;0.40;;;;;;;6.38;100.00;98028.59;5040222;28;20041;-58
2024/02/12 08:53:20;;;;;;;0.32;0.32;;;;;;;6.40;100.00;98029.16;5036974;28;20053;-58
2024/02/12 08:55:48;;;;;;;0.30;0.30;;;;;;;6.43;100.00;98031.34;5039117;28;20049;-58
2024/02/12 08:58:18;;;;;;;0.30;0.30;;;;;;;6.43;100.00;98037.47;5041294;28;20076;-58
2024/02/12 09:00:45;;;;;;;0.40;0.40;;;;;;;6.51;100.00;98043.41;5036536;28;20040;-58
2024/02/12 09:03:26;;;;;;;0.38;0.38;;;;;;;6.48;100.00;98045.50;5014157;28;20041;-59
2024/02/12 09:05:53;;;;;;;0.40;0.40;;;;;;;6.44;100.00;98057.72;5036858;28;20696;-59
2024/02/12 09:08:20;;;;;;;0.38;0.38;;;;;;;6.44;100.00;98054.22;5040743;28;20049;-59
2024/02/12 09:10:47;;;;;;;0.40;0.40;;;;;;;6.48;100.00;98052.69;5040913;28;20095;-59
2024/02/12 09:13:15;;;;;;;0.40;0.40;;;;;;;6.53;100.00;98066.09;5036255;28;20055;-59
2024/02/12 09:15:44;;;;;;;0.40;0.40;;;;;;;6.69;100.00;98065.25;5035266;28;20045;-60
2024/02/12 09:18:11;;;;;;;0.40;0.40;;;;;;;6.81;100.00;98069.66;5035673;28;20053;-59
2024/02/12 09:20:39;;;;;;;0.45;0.45;;;;;;;6.80;100.00;98070.72;5036167;28;20442;-59
2024/02/12 09:23:07;;;;;;;0.38;0.38;;;;;;;6.72;100.00;98079.94;5038300;28;20045;-59
2024/02/12 09:25:34;;;;;;;0.20;0.20;;;;;;;6.78;100.00;98083.47;5037051;28;20068;-58
2024/02/12 09:28:01;;;;;;;0.30;0.30;;;;;;;6.68;100.00;98090.25;5037567;28;20045;-57
2024/02/12 09:30:29;;;;;;;0.40;0.40;;;;;;;6.75;100.00;98091.97;5039809;28;20056;-60
2024/02/12 09:32:57;;;;;;;0.40;0.40;;;;;;;6.72;100.00;98095.91;5035121;28;20081;-60
2024/02/12 09:35:24;;;;;;;0.40;0.40;;;;;;;6.76;100.00;98101.53;5020688;28;20049;-58
2024/02/12 09:37:51;;;;;;;0.30;0.30;;;;;;;6.85;100.00;98097.41;5021672;28;20078;-58
2024/02/12 09:40:21;;;;;;;0.40;0.40;;;;;;;6.89;100.00;98101.22;5037253;28;20041;-58
2024/02/12 09:42:52;;;;;;;0.30;0.30;;;;;;;6.80;100.00;98108.81;5035903;28;20044;-59
2024/02/12 09:45:19;;;;;;;0.30;0.30;;;;;;;6.94;100.00;98106.59;5035503;28;20604;-60
2024/02/12 09:47:46;;;;;;;0.32;0.32;;;;;;;6.92;100.00;98114.03;5037619;28;20119;-59
2024/02/12 09:50:16;;;;;;;0.30;0.30;;;;;;;6.92;100.00;98119.38;5036464;28;20057;-59
2024/02/12 09:52:45;;;;;;;0.40;0.40;;;;;;;6.90;100.00;98121.47;5044088;28;20048;-58
2024/02/12 09:55:13;;;;;;;0.30;0.30;;;;;;;6.92;100.00;98122.03;5041778;28;20037;-59
2024/02/12 09:57:40;;;;;;;0.40;0.40;;;;;;;6.93;100.00;98117.50;5025101;28;20244;-58
2024/02/12 10:00:10;;;;;;;0.40;0.40;;;;;;;6.97;100.00;98121.28;5024687;28;20061;-60
2024/02/12 10:02:46;;;;;;;0.30;0.30;;;;;;;7.17;100.00;98126.09;5041712;28;20037;-58
2024/02/12 10:05:34;;;;;;;0.30;0.30;;;;;;;7.31;100.00;98124.66;5035872;28;20048;-60
2024/02/12 10:08:22;;;;;;;0.40;0.40;;;;;;;7.51;100.00;98132.91;5040394;28;20041;-60
2024/02/12 10:11:10;;;;;;;0.30;0.30;;;;;;;7.81;100.00;98123.59;5041887;28;20503;-59
2024/02/12 10:14:00;;;;;;;0.30;0.30;;;;;;;7.85;100.00;98132.72;5026113;28;20130;-59
2024/02/12 10:16:47;;;;;;;0.40;0.40;;;;;;;7.94;100.00;98125.88;5041780;28;20075;-60
2024/02/12 10:19:35;;;;;;;0.30;0.30;;;;;;;8.10;100.00;98131.38;5040504;28;20053;-60
2024/02/12 10:22:24;;;;;;;0.30;0.30;;;;;;;8.07;100.00;98129.22;5042237;28;20147;-59
2024/02/12 10:25:12;;;;;;;0.30;0.30;;;;;;;8.38;100.00;98125.72;5042368;28;20454;-59
2024/02/12 10:28:00;;;;;;;0.30;0.30;;;;;;;8.77;100.00;98130.84;5040213;28;20530;-59
2024/02/12 10:30:47;;;;;;;0.30;0.30;;;;;;;10.13;99.10;98122.84;5034046;28;20129;-60
2024/02/12 10:33:36;;;;;;;0.30;0.30;;;;;;;10.48;94.15;98131.97;5038890;28;20107;-59
2024/02/12 10:36:23;;;;;;;0.30;0.30;;;;;;;10.26;93.59;98137.56;5039488;28;20640;-59
2024/02/12 10:39:13;;;;;;;0.20;0.20;;;;;;;10.55;89.87;98135.16;5023367;28;20053;-59
2024/02/12 10:42:03;;;;;;;0.28;0.28;;;;;;;11.38;86.53;98133.13;5041384;28;20124;-60
2024/02/12 10:44:50;;;;;;;0.20;0.20;;;;;;;10.84;84.55;98134.63;5024291;28;20045;-58
2024/02/12 10:47:38;;;;;;;0.20;0.20;;;;;;;10.83;87.67;98135.69;5034858;28;20049;-57
2024/02/12 10:50:26;;;;;;;0.20;0.20;;;;;;;10.94;84.42;98142.66;5000062;28;20068;-58
2024/02/12 10:53:13;;;;;;;0.20;0.20;;;;;;;10.57;87.50;98141.06;4993368;28;20046;-59
2024/02/12 10:56:02;;;;;;;0.20;0.20;;;;;;;10.03;88.87;98144.22;4994579;28;20053;-58
2024/02/12 10:58:29;;;;;;;0.22;0.22;;;;;;;10.10;87.33;98149.31;5000500;28;20054;-59
2024/02/12 11:00:57;;;;;;;0.10;0.10;;;;;;;10.13;88.21;98146.94;5002254;28;20128;-58
2024/02/12 11:03:32;;;;;;;0.20;0.20;;;;;;;10.24;87.07;98149.63;4999359;28;20517;-59
2024/02/12 11:06:00;;;;;;;0.17;0.17;;;;;;;10.22;87.88;98146.41;4998769;28;20661;-58
2024/02/12 11:08:28;;;;;;;0.20;0.20;;;;;;;10.03;87.49;98144.22;5010895;28;20450;-60
2024/02/12 11:10:59;;;;;;;0.20;0.20;;;;;;;9.94;88.86;98149.28;4998768;28;20045;-60
2024/02/12 11:13:35;;;;;;;0.10;0.10;;;;;;;10.09;88.35;98153.88;4998641;28;20037;-59
2024/02/12 11:16:06;;;;;;;0.20;0.20;;;;;;;10.02;87.14;98150.66;5001481;28;20120;-58
2024/02/12 11:18:37;;;;;;;0.10;0.10;;;;;;;9.99;87.03;98158.41;5000422;28;20053;-58
2024/02/12 11:21:05;;;;;;;0.10;0.10;;;;;;;10.06;85.91;98149.06;4996196;28;20048;-58
2024/02/12 11:23:34;;;;;;;0.20;0.20;;;;;;;10.11;81.13;98156.28;5002211;28;20515;-58
2024/02/12 11:26:05;;;;;;;0.20;0.20;;;;;;;10.10;78.72;98155.47;5003700;28;20049;-58
2024/02/12 11:28:33;;;;;;;0.20;0.20;;;;;;;9.94;80.00;98157.31;5001049;28;20050;-58
2024/02/12 11:31:04;;;;;;;0.20;0.20;;;;;;;10.11;80.10;98154.41;5002203;28;20482;-58
2024/02/12 11:33:34;;;;;;;0.20;0.20;;;;;;;9.94;79.85;98160.00;5001291;28;20516;-58
2024/02/12 11:36:08;;;;;;;0.28;0.28;;;;;;;10.02;80.97;98164.03;5001696;28;20760;-58
2024/02/12 11:38:37;;;;;;;0.10;0.10;;;;;;;9.85;79.94;98164.25;4998193;28;20077;-58
2024/02/12 11:41:05;;;;;;;0.20;0.20;;;;;;;9.92;81.11;98169.34;4997761;28;20050;-59
2024/02/12 11:43:34;;;;;;;0.17;0.17;;;;;;;9.87;80.58;98172.03;5012352;28;20077;-59
2024/02/12 11:46:05;;;;;;;0.30;0.30;;;;;;;9.86;81.59;98181.09;5004554;28;20049;-58
2024/02/12 11:48:32;;;;;;;0.28;0.28;;;;;;;10.03;81.87;98178.22;5011840;28;20140;-58
2024/02/12 11:51:00;;;;;;;0.20;0.20;;;;;;;9.69;80.76;98181.34;5042119;28;20041;-58
2024/02/12 11:53:27;;;;;;;0.30;0.30;;;;;;;9.70;80.66;98185.59;5040653;28;20033;-59
2024/02/12 11:55:54;;;;;;;0.20;0.20;;;;;;;9.68;81.27;98185.06;5040386;28;20045;-58
2024/02/12 11:58:21;;;;;;;0.30;0.30;;;;;;;9.57;82.13;98180.75;5020736;28;20044;-58